Time;durP1;ratioP1;P1;durP2;ratioP2;P2;SDS_P1;SDS_P2;PMS_P1;PMS_P2;Temp;Humidity;BMP_temperature;BMP_pressure;BME280_temperature;BME280_humidity;BME280_pressure;Samples;Min_cycle;Max_cycle;Signal;HPM_P1;HPM_P2
2023/03/18 00:00:15;;;;;;;5.63;3.83;;;10.60;99.90;;;;;;5096490;28;20250;-56
2023/03/18 00:02:43;;;;;;;9.63;4.23;;;10.50;99.90;;;;;;5096059;28;20204;-55
2023/03/18 00:05:11;;;;;;;5.67;3.93;;;10.50;99.90;;;;;;5096299;28;20597;-56
2023/03/18 00:07:39;;;;;;;8.03;4.07;;;10.30;99.90;;;;;;5096620;28;20204;-55
2023/03/18 00:10:09;;;;;;;8.43;4.13;;;10.30;99.90;;;;;;5096040;28;20239;-56
2023/03/18 00:12:37;;;;;;;6.03;4.00;;;10.30;99.90;;;;;;5096252;28;20291;-55
2023/03/18 00:15:05;;;;;;;10.23;4.03;;;10.30;99.90;;;;;;5096147;28;20216;-55
2023/03/18 00:17:31;;;;;;;11.07;4.77;;;10.20;99.90;;;;;;5096119;28;20295;-56
2023/03/18 00:20:04;;;;;;;8.17;4.50;;;10.20;99.90;;;;;;5096128;28;20219;-56
2023/03/18 00:22:31;;;;;;;6.37;3.70;;;10.20;99.90;;;;;;5095862;28;20283;-56
2023/03/18 00:24:58;;;;;;;7.53;4.47;;;10.20;99.90;;;;;;5095933;28;20200;-56
2023/03/18 00:27:25;;;;;;;9.57;4.60;;;10.20;99.90;;;;;;5096088;28;20215;-57
2023/03/18 00:29:52;;;;;;;10.20;4.33;;;10.20;99.90;;;;;;5095956;28;20224;-56
2023/03/18 00:32:19;;;;;;;7.87;4.20;;;10.20;99.90;;;;;;5095731;28;20212;-56
2023/03/18 00:34:45;;;;;;;6.13;3.80;;;10.20;99.90;;;;;;5096246;28;20287;-56
2023/03/18 00:37:18;;;;;;;8.67;3.90;;;10.20;99.90;;;;;;5095643;28;20204;-56
2023/03/18 00:39:45;;;;;;;4.77;3.43;;;10.20;99.90;;;;;;5096143;28;20204;-56
2023/03/18 00:42:13;;;;;;;7.23;3.40;;;10.10;99.90;;;;;;5095649;28;20208;-56
2023/03/18 00:44:42;;;;;;;4.80;3.60;;;10.10;99.90;;;;;;5095705;28;20211;-56
2023/03/18 00:47:09;;;;;;;7.83;3.33;;;10.00;99.90;;;;;;5095610;28;20582;-56
2023/03/18 00:49:36;;;;;;;8.23;3.43;;;9.90;99.90;;;;;;5095472;28;20692;-56
2023/03/18 00:52:03;;;;;;;5.47;3.47;;;9.80;99.90;;;;;;5095545;28;20704;-56
2023/03/18 00:54:31;;;;;;;4.17;3.37;;;9.80;99.90;;;;;;5095976;28;20243;-56
2023/03/18 00:56:58;;;;;;;5.97;3.77;;;9.80;99.90;;;;;;5095864;28;20204;-56
2023/03/18 00:59:25;;;;;;;7.63;3.60;;;9.90;99.90;;;;;;5095519;28;20206;-56
2023/03/18 01:01:52;;;;;;;6.97;3.70;;;9.90;99.90;;;;;;5095175;28;20239;-56
2023/03/18 01:04:20;;;;;;;7.70;3.77;;;10.00;99.90;;;;;;5094997;28;20626;-56
2023/03/18 01:06:47;;;;;;;5.30;3.63;;;10.00;99.90;;;;;;5095233;28;20759;-56
2023/03/18 01:09:15;;;;;;;5.30;3.80;;;10.00;99.90;;;;;;5095348;28;20225;-57
2023/03/18 01:11:43;;;;;;;8.20;3.57;;;10.00;99.90;;;;;;5094772;28;20232;-56
2023/03/18 01:14:11;;;;;;;5.50;3.70;;;10.10;99.90;;;;;;5094907;28;20211;-55
2023/03/18 01:16:37;;;;;;;6.33;3.40;;;10.10;99.90;;;;;;5095062;28;20230;-55
2023/03/18 01:19:05;;;;;;;7.17;3.97;;;10.10;99.90;;;;;;5094987;28;20200;-56
2023/03/18 01:21:32;;;;;;;4.20;3.27;;;10.10;99.90;;;;;;5094643;28;20220;-55
2023/03/18 01:23:59;;;;;;;6.97;3.70;;;10.10;99.90;;;;;;5094813;28;20666;-56
2023/03/18 01:26:26;;;;;;;8.23;3.53;;;10.10;99.90;;;;;;5094654;28;20212;-55
2023/03/18 01:28:54;;;;;;;5.53;3.57;;;10.10;99.90;;;;;;5094935;28;20204;-55
2023/03/18 01:31:23;;;;;;;4.80;3.77;;;10.20;99.90;;;;;;5094217;28;20235;-55
2023/03/18 01:33:49;;;;;;;7.23;3.70;;;10.20;99.90;;;;;;5094729;28;20212;-56
2023/03/18 01:36:16;;;;;;;5.60;3.40;;;10.20;99.90;;;;;;5095282;28;20206;-55
2023/03/18 01:38:43;;;;;;;6.43;4.17;;;10.20;99.90;;;;;;5094866;28;20204;-55
2023/03/18 01:41:11;;;;;;;5.13;3.63;;;10.20;99.90;;;;;;5094432;28;20225;-55
2023/03/18 01:43:41;;;;;;;6.03;3.37;;;10.10;99.90;;;;;;5094537;28;20216;-56
2023/03/18 01:46:31;;;;;;;6.70;3.60;;;10.10;99.90;;;;;;5094839;28;20208;-55
2023/03/18 01:48:57;;;;;;;4.10;3.30;;;10.00;99.90;;;;;;5094820;28;20207;-56
2023/03/18 01:51:28;;;;;;;5.00;3.20;;;9.90;99.90;;;;;;5094532;28;20634;-56
2023/03/18 01:53:57;;;;;;;5.83;3.80;;;9.90;99.90;;;;;;5094911;28;20767;-56
2023/03/18 01:56:25;;;;;;;7.50;3.43;;;9.80;99.90;;;;;;5094487;28;20208;-56
2023/03/18 01:58:56;;;;;;;6.70;3.90;;;9.70;99.90;;;;;;5094647;28;20562;-55
2023/03/18 02:01:28;;;;;;;6.50;3.60;;;9.70;99.90;;;;;;5094256;28;20231;-55
2023/03/18 02:03:57;;;;;;;6.03;3.90;;;9.70;99.90;;;;;;5094329;28;20215;-56
2023/03/18 02:06:25;;;;;;;5.03;3.50;;;9.80;99.90;;;;;;5093979;28;20672;-55
2023/03/18 02:08:52;;;;;;;8.00;3.20;;;9.80;99.90;;;;;;5094081;28;20643;-56
2023/03/18 02:11:19;;;;;;;7.10;3.60;;;9.90;99.90;;;;;;5094040;28;20236;-56
2023/03/18 02:13:47;;;;;;;5.60;3.47;;;9.80;99.90;;;;;;5094232;28;20208;-56
2023/03/18 02:16:18;;;;;;;8.97;4.10;;;9.80;99.90;;;;;;5093425;28;20253;-56
2023/03/18 02:18:49;;;;;;;4.90;3.43;;;9.90;99.90;;;;;;5093824;28;20855;-56
2023/03/18 02:21:31;;;;;;;5.93;4.03;;;10.00;99.90;;;;;;5093424;28;20231;-56
2023/03/18 02:24:05;;;;;;;5.73;3.97;;;10.10;99.90;;;;;;5094132;28;20299;-57
2023/03/18 02:26:39;;;;;;;4.93;3.43;;;10.30;99.90;;;;;;5093737;28;20251;-56
2023/03/18 02:29:09;;;;;;;6.60;3.73;;;10.40;99.90;;;;;;5093492;28;20204;-56
2023/03/18 02:31:37;;;;;;;10.17;4.30;;;10.50;99.90;;;;;;5093307;28;20220;-56
2023/03/18 02:34:07;;;;;;;6.67;4.47;;;10.60;99.90;;;;;;5093374;28;20556;-56
2023/03/18 02:36:36;;;;;;;6.93;4.73;;;10.60;99.90;;;;;;5093671;28;20204;-56
2023/03/18 02:39:03;;;;;;;7.00;4.17;;;10.50;99.90;;;;;;5093410;28;20206;-57
2023/03/18 02:41:32;;;;;;;9.17;5.00;;;10.40;99.90;;;;;;5092931;28;20224;-56
2023/03/18 02:43:59;;;;;;;6.97;4.80;;;10.20;99.90;;;;;;5093284;28;20219;-57
2023/03/18 02:46:35;;;;;;;6.30;4.83;;;10.10;99.90;;;;;;5092993;28;20208;-56
2023/03/18 02:49:05;;;;;;;7.37;4.83;;;10.00;99.90;;;;;;5093253;28;20212;-56
2023/03/18 02:51:32;;;;;;;5.70;4.90;;;9.90;99.90;;;;;;5092934;28;20322;-56
2023/03/18 02:54:04;;;;;;;6.37;4.70;;;9.90;99.90;;;;;;5093088;28;20219;-57
2023/03/18 02:56:31;;;;;;;7.23;4.80;;;9.80;99.90;;;;;;5092812;28;20488;-56
2023/03/18 02:58:58;;;;;;;7.53;4.27;;;9.70;99.90;;;;;;5092671;28;20200;-56
2023/03/18 03:01:25;;;;;;;6.90;4.80;;;9.60;99.90;;;;;;5092683;28;20716;-56
2023/03/18 03:03:53;;;;;;;8.30;4.57;;;9.40;99.90;;;;;;5092831;28;20587;-55
2023/03/18 03:06:20;;;;;;;5.83;4.70;;;9.30;99.90;;;;;;5092647;28;20208;-55
2023/03/18 03:08:47;;;;;;;7.27;4.90;;;9.30;99.90;;;;;;5092717;28;20200;-56
2023/03/18 03:11:14;;;;;;;6.00;4.80;;;9.20;99.90;;;;;;5091860;28;20633;-56
2023/03/18 03:13:44;;;;;;;9.00;5.00;;;9.30;99.90;;;;;;5092583;28;20200;-56
2023/03/18 03:16:12;;;;;;;8.23;4.77;;;9.30;99.90;;;;;;5092795;28;20200;-55
2023/03/18 03:18:39;;;;;;;6.63;4.20;;;9.40;99.90;;;;;;5092689;28;20227;-55
2023/03/18 03:21:07;;;;;;;7.50;4.47;;;9.40;99.90;;;;;;5092355;28;20228;-55
2023/03/18 03:23:34;;;;;;;7.73;5.20;;;9.50;99.90;;;;;;5092467;28;20208;-56
2023/03/18 03:26:03;;;;;;;7.67;4.67;;;9.50;99.90;;;;;;5092399;28;20208;-56
2023/03/18 03:28:31;;;;;;;9.50;4.80;;;9.60;99.90;;;;;;5091695;28;20295;-56
2023/03/18 03:30:58;;;;;;;6.70;4.90;;;9.60;99.90;;;;;;5092407;28;20228;-56
2023/03/18 03:33:26;;;;;;;6.33;4.60;;;9.60;99.90;;;;;;5092278;28;20204;-56
2023/03/18 03:35:54;;;;;;;5.80;4.40;;;9.40;99.90;;;;;;5092228;28;20211;-56
2023/03/18 03:38:23;;;;;;;6.13;4.93;;;9.30;99.90;;;;;;5092186;28;20632;-56
2023/03/18 03:40:50;;;;;;;6.77;4.37;;;9.30;99.90;;;;;;5092391;28;20216;-56
2023/03/18 03:43:17;;;;;;;6.77;4.60;;;9.30;99.90;;;;;;5092165;28;20199;-56
2023/03/18 03:45:44;;;;;;;6.87;4.70;;;9.30;99.90;;;;;;5092498;28;20207;-56
2023/03/18 03:48:11;;;;;;;8.13;4.73;;;9.30;99.90;;;;;;5092375;28;20207;-56
2023/03/18 03:50:39;;;;;;;5.87;4.47;;;9.30;99.90;;;;;;5092116;28;20314;-56
2023/03/18 03:53:08;;;;;;;6.33;4.73;;;9.30;99.90;;;;;;5092200;28;20204;-56
2023/03/18 03:55:36;;;;;;;6.53;4.77;;;9.20;99.90;;;;;;5092133;28;20614;-56
2023/03/18 03:58:03;;;;;;;7.80;4.37;;;9.20;99.90;;;;;;5092358;28;20564;-56
2023/03/18 04:00:31;;;;;;;9.53;5.00;;;9.20;99.90;;;;;;5091967;28;20240;-56
2023/03/18 04:02:59;;;;;;;8.30;4.10;;;9.20;99.90;;;;;;5091909;28;20200;-56
2023/03/18 04:05:26;;;;;;;7.83;4.17;;;9.30;99.90;;;;;;5091856;28;20714;-53
2023/03/18 04:07:54;;;;;;;8.27;4.60;;;9.10;99.90;;;;;;5092009;28;20207;-56
2023/03/18 04:10:22;;;;;;;6.07;4.13;;;9.00;99.90;;;;;;5092027;28;20273;-55
2023/03/18 04:12:50;;;;;;;6.63;4.50;;;9.00;99.90;;;;;;5091879;28;20629;-55
2023/03/18 04:15:18;;;;;;;6.70;3.93;;;8.90;99.90;;;;;;5092022;28;20646;-55
2023/03/18 04:17:45;;;;;;;5.40;3.83;;;8.90;99.90;;;;;;5091843;28;20565;-55
2023/03/18 04:20:13;;;;;;;6.93;4.00;;;8.80;99.90;;;;;;5091567;28;20235;-55
2023/03/18 04:22:40;;;;;;;7.17;4.37;;;8.70;99.90;;;;;;5092234;28;20841;-55
2023/03/18 04:25:07;;;;;;;5.10;4.13;;;8.70;99.90;;;;;;5092352;28;20204;-55
2023/03/18 04:27:34;;;;;;;7.63;3.80;;;8.70;99.90;;;;;;5092065;28;20226;-55
2023/03/18 04:30:03;;;;;;;5.97;3.87;;;8.70;99.90;;;;;;5091867;28;20567;-55
2023/03/18 04:32:30;;;;;;;5.43;4.17;;;8.70;99.90;;;;;;5091346;28;20315;-55
2023/03/18 04:34:57;;;;;;;4.93;3.70;;;8.70;99.90;;;;;;5091887;28;20212;-55
2023/03/18 04:37:23;;;;;;;6.00;3.60;;;8.70;99.90;;;;;;5091869;28;20208;-55
2023/03/18 04:39:50;;;;;;;5.40;2.77;;;8.70;99.90;;;;;;5092869;28;20299;-55
2023/03/18 04:42:17;;;;;;;6.37;3.27;;;8.60;99.90;;;;;;5095272;28;20207;-56
2023/03/18 04:44:44;;;;;;;5.77;3.33;;;8.60;99.90;;;;;;5095404;28;20200;-55
2023/03/18 04:47:12;;;;;;;6.97;4.43;;;8.50;99.90;;;;;;5095691;28;20207;-55
2023/03/18 04:49:39;;;;;;;6.20;3.10;;;8.40;99.90;;;;;;5095099;28;20232;-55
2023/03/18 04:52:07;;;;;;;5.60;2.80;;;8.40;99.90;;;;;;5094946;28;20235;-55
2023/03/18 04:54:36;;;;;;;5.93;2.60;;;8.30;99.90;;;;;;5095166;28;20258;-55
2023/03/18 04:57:04;;;;;;;3.87;2.47;;;8.20;99.90;;;;;;5095289;28;20215;-55
2023/03/18 04:59:31;;;;;;;5.00;2.57;;;8.10;99.90;;;;;;5094924;28;20262;-55
2023/03/18 05:01:58;;;;;;;4.33;2.63;;;8.10;99.90;;;;;;5094695;28;20235;-55
2023/03/18 05:04:27;;;;;;;6.13;2.60;;;8.10;99.90;;;;;;5095319;28;20461;-54
2023/03/18 05:06:53;;;;;;;5.73;2.83;;;8.10;99.90;;;;;;5094960;28;20204;-55
2023/03/18 05:09:20;;;;;;;6.20;4.13;;;8.00;99.90;;;;;;5094881;28;20208;-55
2023/03/18 05:11:47;;;;;;;4.70;2.60;;;8.00;99.90;;;;;;5094587;28;20224;-55
2023/03/18 05:14:14;;;;;;;5.57;2.50;;;7.90;99.90;;;;;;5094883;28;20255;-55
2023/03/18 05:16:42;;;;;;;4.13;2.27;;;7.80;99.90;;;;;;5094851;28;20204;-55
2023/03/18 05:19:09;;;;;;;4.60;2.23;;;7.70;99.90;;;;;;5094853;28;20226;-54
2023/03/18 05:21:37;;;;;;;3.57;2.57;;;7.60;99.90;;;;;;5094687;28;20231;-55
2023/03/18 05:24:05;;;;;;;2.80;2.10;;;7.60;99.90;;;;;;5094666;28;20204;-55
2023/03/18 05:26:31;;;;;;;2.77;2.10;;;7.50;99.90;;;;;;5094472;28;20212;-55
2023/03/18 05:28:58;;;;;;;6.40;2.23;;;7.40;99.90;;;;;;5094595;28;20311;-54
2023/03/18 05:31:25;;;;;;;4.63;2.07;;;7.30;99.90;;;;;;5094546;28;20232;-54
2023/03/18 05:33:52;;;;;;;3.43;2.13;;;7.30;99.90;;;;;;5094409;28;20215;-54
2023/03/18 05:36:19;;;;;;;3.67;2.20;;;7.30;99.90;;;;;;5094642;28;20200;-54
2023/03/18 05:38:47;;;;;;;3.47;2.10;;;7.40;99.90;;;;;;5094536;28;20226;-55
2023/03/18 05:41:13;;;;;;;3.13;2.10;;;7.30;99.90;;;;;;5094362;28;20216;-55
2023/03/18 05:43:41;;;;;;;2.67;1.97;;;7.30;99.90;;;;;;5094101;28;20211;-55
2023/03/18 05:46:08;;;;;;;2.83;2.40;;;7.20;99.90;;;;;;5094618;28;20204;-55
2023/03/18 05:48:35;;;;;;;5.50;2.47;;;7.20;99.90;;;;;;5094946;28;20204;-54
2023/03/18 05:51:03;;;;;;;2.77;2.13;;;7.30;99.90;;;;;;5094183;28;20315;-55
2023/03/18 05:53:30;;;;;;;4.80;2.10;;;7.30;99.90;;;;;;5094588;28;20207;-55
2023/03/18 05:55:59;;;;;;;6.30;2.10;;;7.30;99.90;;;;;;5095126;28;20621;-55
2023/03/18 05:58:29;;;;;;;4.50;2.10;;;7.30;99.90;;;;;;5094474;28;20207;-56
2023/03/18 06:00:57;;;;;;;2.87;2.10;;;7.40;99.90;;;;;;5094046;28;20310;-56
2023/03/18 06:03:24;;;;;;;3.57;2.00;;;7.40;99.90;;;;;;5094760;28;20307;-55
2023/03/18 06:05:51;;;;;;;2.87;2.10;;;7.50;99.90;;;;;;5094430;28;20212;-55
2023/03/18 06:08:18;;;;;;;3.47;2.13;;;7.50;99.90;;;;;;5094811;28;20207;-55
2023/03/18 06:10:45;;;;;;;3.80;2.40;;;7.50;99.90;;;;;;5093798;28;20227;-55
2023/03/18 06:13:14;;;;;;;3.43;1.90;;;7.50;99.90;;;;;;5094759;28;20224;-55
2023/03/18 06:15:40;;;;;;;3.23;2.03;;;7.60;99.90;;;;;;5095120;28;20268;-55
2023/03/18 06:18:08;;;;;;;3.47;2.20;;;7.60;99.90;;;;;;5095674;28;20204;-55
2023/03/18 06:20:35;;;;;;;7.13;2.83;;;7.60;99.90;;;;;;5095492;28;20243;-55
2023/03/18 06:23:02;;;;;;;2.17;1.60;;;7.70;99.90;;;;;;5094472;28;20204;-55
2023/03/18 06:25:29;;;;;;;4.80;1.90;;;7.70;99.90;;;;;;5094890;28;20351;-55
2023/03/18 06:27:56;;;;;;;3.07;2.13;;;7.80;99.90;;;;;;5094623;28;20205;-55
2023/03/18 06:30:24;;;;;;;3.90;1.70;;;7.80;99.90;;;;;;5095310;28;20618;-55
2023/03/18 06:32:52;;;;;;;4.73;2.00;;;7.90;99.90;;;;;;5094792;28;20228;-55
2023/03/18 06:35:19;;;;;;;3.97;2.20;;;8.00;99.90;;;;;;5095534;28;20200;-54
2023/03/18 06:37:46;;;;;;;3.87;2.33;;;8.20;99.90;;;;;;5095761;28;20208;-54
2023/03/18 06:40:13;;;;;;;5.10;2.40;;;8.30;99.90;;;;;;5095589;28;20224;-55
2023/03/18 06:42:39;;;;;;;4.50;2.27;;;8.60;99.90;;;;;;5094831;28;20196;-55
2023/03/18 06:45:08;;;;;;;4.37;2.23;;;8.80;99.90;;;;;;5095289;28;20200;-55
2023/03/18 06:47:37;;;;;;;6.57;2.40;;;9.10;99.90;;;;;;5095469;28;20261;-55
2023/03/18 06:50:05;;;;;;;3.87;2.20;;;9.30;99.90;;;;;;5094348;28;20581;-55
2023/03/18 06:52:31;;;;;;;5.80;3.30;;;9.90;99.90;;;;;;5093815;28;20223;-55
2023/03/18 06:55:01;;;;;;;7.77;3.63;;;10.50;99.90;;;;;;5094553;28;20207;-56
2023/03/18 06:57:28;;;;;;;6.70;3.53;;;11.10;99.90;;;;;;5095122;28;20203;-56
2023/03/18 06:59:56;;;;;;;6.60;3.60;;;11.50;99.90;;;;;;5094335;28;20204;-56
2023/03/18 07:02:23;;;;;;;5.57;3.70;;;11.80;99.90;;;;;;5093670;28;20238;-56
2023/03/18 07:04:52;;;;;;;5.17;3.33;;;12.00;99.90;;;;;;5094089;28;20200;-56
2023/03/18 07:07:20;;;;;;;4.87;3.20;;;12.10;99.90;;;;;;5093468;28;20239;-56
2023/03/18 07:09:46;;;;;;;3.93;2.73;;;12.20;99.90;;;;;;5093059;28;20595;-56
2023/03/18 07:12:15;;;;;;;4.03;3.10;;;12.30;99.90;;;;;;5092853;28;20223;-56
2023/03/18 07:14:42;;;;;;;6.03;2.97;;;12.40;99.90;;;;;;5093284;28;20751;-56
2023/03/18 07:17:11;;;;;;;5.80;2.77;;;12.40;99.90;;;;;;5093488;28;20235;-56
2023/03/18 07:19:38;;;;;;;7.40;2.90;;;12.70;99.90;;;;;;5093142;28;20209;-56
2023/03/18 07:22:06;;;;;;;4.63;2.80;;;13.70;99.90;;;;;;5092914;28;20224;-56
2023/03/18 07:24:34;;;;;;;5.70;2.70;;;15.00;99.90;;;;;;5093088;28;20204;-56
2023/03/18 07:27:01;;;;;;;3.80;2.53;;;16.30;99.90;;;;;;5093277;28;20405;-56
2023/03/18 07:29:28;;;;;;;8.30;3.00;;;17.20;99.90;;;;;;5093163;28;20583;-56
2023/03/18 07:31:55;;;;;;;4.72;2.53;;;18.20;99.90;;;;;;5093135;28;20231;-57
2023/03/18 07:34:22;;;;;;;4.68;2.60;;;19.20;98.70;;;;;;5092870;28;20234;-56
2023/03/18 07:36:49;;;;;;;3.13;2.42;;;20.10;96.40;;;;;;5093075;28;20200;-56
2023/03/18 07:39:17;;;;;;;4.38;2.28;;;20.60;94.40;;;;;;5093261;28;20644;-56
2023/03/18 07:41:44;;;;;;;5.93;2.65;;;20.90;93.70;;;;;;5092183;28;20224;-56
2023/03/18 07:44:10;;;;;;;6.63;3.45;;;21.20;92.20;;;;;;5092521;28;20200;-56
2023/03/18 07:46:37;;;;;;;4.70;2.72;;;21.80;91.40;;;;;;5092829;28;20207;-56
2023/03/18 07:49:04;;;;;;;5.90;2.20;;;22.20;89.40;;;;;;5092753;28;20204;-56
2023/03/18 07:51:31;;;;;;;4.43;2.70;;;22.50;86.90;;;;;;5092588;28;20227;-57
2023/03/18 07:53:58;;;;;;;4.80;2.60;;;22.70;85.20;;;;;;5092437;28;20200;-56
2023/03/18 07:56:27;;;;;;;4.18;2.20;;;22.90;83.90;;;;;;5092367;28;20208;-56
2023/03/18 07:58:53;;;;;;;4.25;2.65;;;22.80;83.40;;;;;;5092686;28;20296;-57
2023/03/18 08:01:20;;;;;;;3.95;2.50;;;22.60;82.40;;;;;;5092450;28;20231;-57
2023/03/18 08:03:47;;;;;;;5.55;2.65;;;22.00;82.70;;;;;;5092707;28;20204;-57
2023/03/18 08:06:15;;;;;;;5.43;2.45;;;21.00;84.30;;;;;;5092670;28;20200;-57
2023/03/18 08:08:43;;;;;;;5.70;2.60;;;20.10;86.60;;;;;;5092677;28;20218;-58
2023/03/18 08:11:11;;;;;;;4.93;2.47;;;19.30;88.00;;;;;;5092231;28;20325;-57
2023/03/18 08:13:39;;;;;;;5.45;2.83;;;18.60;89.50;;;;;;5092433;28;20223;-57
2023/03/18 08:16:07;;;;;;;6.93;2.63;;;18.00;91.10;;;;;;5095952;28;20226;-56
2023/03/18 08:18:33;;;;;;;5.78;2.60;;;17.40;92.10;;;;;;5096320;28;20711;-57
2023/03/18 08:21:00;;;;;;;4.43;2.40;;;16.90;94.30;;;;;;5095874;28;20238;-57
2023/03/18 08:23:27;;;;;;;5.72;2.72;;;16.60;94.60;;;;;;5095954;28;20270;-57
2023/03/18 08:25:54;;;;;;;4.35;2.28;;;16.30;95.40;;;;;;5095872;28;20207;-57
2023/03/18 08:28:20;;;;;;;3.80;2.20;;;16.00;94.90;;;;;;5096369;28;20211;-56
2023/03/18 08:30:53;;;;;;;3.28;2.20;;;15.60;95.50;;;;;;5096168;28;20243;-55
2023/03/18 08:33:19;;;;;;;5.93;2.15;;;15.40;95.90;;;;;;5096293;28;20231;-55
2023/03/18 08:35:47;;;;;;;7.07;2.60;;;15.40;96.00;;;;;;5095892;28;20208;-55
2023/03/18 08:38:14;;;;;;;4.30;2.07;;;15.40;95.90;;;;;;5095832;28;20695;-55
2023/03/18 08:40:41;;;;;;;3.40;1.77;;;15.60;95.50;;;;;;5097992;28;20247;-58
2023/03/18 08:43:09;;;;;;;4.80;1.97;;;15.70;94.90;;;;;;5100748;28;20625;-58
2023/03/18 08:45:36;;;;;;;5.03;1.73;;;15.80;94.50;;;;;;5100835;28;20220;-59
2023/03/18 08:48:05;;;;;;;4.77;2.03;;;15.90;93.30;;;;;;5100685;28;20571;-60
2023/03/18 08:50:32;;;;;;;7.60;1.47;;;15.90;93.20;;;;;;5099460;28;20224;-59
2023/03/18 08:53:00;;;;;;;4.97;2.93;;;16.00;92.30;;;;;;5099427;28;20222;-59
2023/03/18 08:55:30;;;;;;;2.30;1.20;;;16.30;90.60;;;;;;5098933;28;20668;-59
2023/03/18 08:57:57;;;;;;;2.73;1.10;;;16.50;90.00;;;;;;5099407;28;20285;-58
2023/03/18 09:00:25;;;;;;;2.58;1.60;;;16.40;90.30;;;;;;5097687;28;20236;-56
2023/03/18 09:02:52;;;;;;;3.40;1.53;;;16.00;91.30;;;;;;5096327;28;20201;-57
2023/03/18 09:05:21;;;;;;;2.70;1.40;;;15.90;90.80;;;;;;5097374;28;20204;-57
2023/03/18 09:07:48;;;;;;;9.23;4.10;;;16.00;90.70;;;;;;5096203;28;20208;-57
2023/03/18 09:10:16;;;;;;;4.18;2.70;;;16.00;90.70;;;;;;5096614;28;20220;-57
2023/03/18 09:12:43;;;;;;;6.00;2.83;;;16.20;90.70;;;;;;5096053;28;20581;-57
2023/03/18 09:15:11;;;;;;;3.30;1.30;;;16.40;90.30;;;;;;5097209;28;20212;-57
2023/03/18 09:17:39;;;;;;;1.52;1.20;;;16.60;90.70;;;;;;5096911;28;20215;-57
2023/03/18 09:20:08;;;;;;;2.67;1.10;;;16.70;90.30;;;;;;5097459;28;20269;-57
2023/03/18 09:22:36;;;;;;;3.72;1.10;;;16.90;88.80;;;;;;5096358;28;20652;-57
2023/03/18 09:25:03;;;;;;;3.42;1.60;;;17.10;87.70;;;;;;5097093;28;20212;-58
2023/03/18 09:27:30;;;;;;;4.30;1.48;;;17.20;88.50;;;;;;5095108;28;20245;-58
2023/03/18 09:29:58;;;;;;;2.35;1.30;;;17.00;88.60;;;;;;5096398;28;20291;-55
2023/03/18 09:32:25;;;;;;;3.20;1.38;;;17.00;88.30;;;;;;5095268;28;20425;-56
2023/03/18 09:34:52;;;;;;;4.03;1.38;;;17.00;88.10;;;;;;5095517;28;20281;-57
2023/03/18 09:37:19;;;;;;;4.80;1.50;;;17.00;88.80;;;;;;5095583;28;20204;-57
2023/03/18 09:39:47;;;;;;;2.22;1.52;;;17.10;88.70;;;;;;5094772;28;20206;-56
2023/03/18 09:42:36;;;;;;;3.05;1.50;;;17.30;88.10;;;;;;5094798;28;20529;-57
2023/03/18 09:45:10;;;;;;;3.55;2.17;;;17.40;88.00;;;;;;5094372;28;20680;-56
2023/03/18 09:47:53;;;;;;;2.20;1.35;;;17.50;86.20;;;;;;5094740;28;20215;-58
2023/03/18 09:50:32;;;;;;;2.67;1.52;;;17.50;86.00;;;;;;5094389;28;20220;-57
2023/03/18 09:53:11;;;;;;;3.67;1.40;;;17.40;86.20;;;;;;5093913;28;20231;-57
2023/03/18 09:55:45;;;;;;;3.78;1.30;;;17.40;84.40;;;;;;5094260;28;20262;-58
2023/03/18 09:58:20;;;;;;;2.67;1.05;;;17.40;85.10;;;;;;5094307;28;20304;-58
2023/03/18 10:00:47;;;;;;;3.65;1.27;;;17.50;83.10;;;;;;5093610;28;20231;-58
2023/03/18 10:03:22;;;;;;;3.13;1.10;;;17.50;82.80;;;;;;5093681;28;20200;-58
2023/03/18 10:05:52;;;;;;;2.83;0.90;;;17.60;83.80;;;;;;5093451;28;20207;-58
2023/03/18 10:08:24;;;;;;;3.42;1.38;;;17.70;83.40;;;;;;5094260;28;20577;-57
2023/03/18 10:10:52;;;;;;;2.38;1.10;;;17.80;83.40;;;;;;5093572;28;20236;-58
2023/03/18 10:13:25;;;;;;;3.20;1.23;;;17.90;82.50;;;;;;5093505;28;20231;-58
2023/03/18 10:15:55;;;;;;;3.83;1.85;;;17.90;82.60;;;;;;5093750;28;20246;-58
2023/03/18 10:18:27;;;;;;;2.08;1.13;;;17.90;82.90;;;;;;5093490;28;20210;-58
2023/03/18 10:21:06;;;;;;;1.63;1.00;;;17.90;83.00;;;;;;5093529;28;20293;-58
2023/03/18 10:23:43;;;;;;;3.08;1.08;;;18.00;83.20;;;;;;5093472;28;20210;-59
2023/03/18 10:26:16;;;;;;;3.03;1.10;;;18.20;83.70;;;;;;5093653;28;20211;-58
2023/03/18 10:29:07;;;;;;;2.78;1.45;;;18.30;82.70;;;;;;5093571;28;20699;-59
2023/03/18 10:31:47;;;;;;;4.15;1.63;;;18.40;83.00;;;;;;5093338;28;20315;-58
2023/03/18 10:34:16;;;;;;;3.63;1.10;;;18.50;82.90;;;;;;5093098;28;20228;-58
2023/03/18 10:36:50;;;;;;;5.00;1.17;;;18.40;82.40;;;;;;5093163;28;20200;-58
2023/03/18 10:39:20;;;;;;;7.28;1.30;;;18.50;81.60;;;;;;5093444;28;20211;-59
2023/03/18 10:41:50;;;;;;;4.47;1.30;;;18.60;81.80;;;;;;5092993;28;20602;-59
2023/03/18 10:44:21;;;;;;;3.90;1.50;;;18.70;81.30;;;;;;5093243;28;20637;-59
2023/03/18 10:46:56;;;;;;;4.18;1.30;;;18.80;81.10;;;;;;5092944;28;20211;-59
2023/03/18 10:49:29;;;;;;;10.13;1.70;;;19.00;80.20;;;;;;5092971;28;20208;-59
2023/03/18 10:52:04;;;;;;;2.00;1.17;;;19.10;79.30;;;;;;5092591;28;20715;-59
2023/03/18 10:54:37;;;;;;;3.20;1.98;;;19.30;79.20;;;;;;5092987;28;20234;-59
2023/03/18 10:57:05;;;;;;;3.25;1.75;;;19.50;79.40;;;;;;5092886;28;20291;-59
2023/03/18 10:59:34;;;;;;;2.90;1.40;;;19.70;79.20;;;;;;5092767;28;20208;-59
2023/03/18 11:02:04;;;;;;;1.70;1.17;;;19.80;78.20;;;;;;5092424;28;20246;-58
2023/03/18 11:04:36;;;;;;;2.78;1.23;;;20.00;75.90;;;;;;5092887;28;20257;-58
2023/03/18 11:07:07;;;;;;;5.07;1.17;;;20.00;75.20;;;;;;5092788;28;20207;-58
2023/03/18 11:09:35;;;;;;;4.90;1.10;;;20.10;74.60;;;;;;5092647;28;20665;-59
2023/03/18 11:12:06;;;;;;;2.17;1.10;;;19.90;74.50;;;;;;5092439;28;20626;-59
2023/03/18 11:14:36;;;;;;;4.00;1.08;;;19.90;75.00;;;;;;5092473;28;20223;-58
2023/03/18 11:17:05;;;;;;;5.03;1.45;;;20.00;74.20;;;;;;5092556;28;20205;-58
2023/03/18 11:19:37;;;;;;;2.58;1.55;;;20.10;73.90;;;;;;5092729;28;20204;-59
2023/03/18 11:22:14;;;;;;;1.15;0.90;;;20.30;73.20;;;;;;5092394;28;20724;-58
2023/03/18 11:24:42;;;;;;;3.88;1.02;;;20.50;70.80;;;;;;5092189;28;20691;-58
2023/03/18 11:27:26;;;;;;;1.40;0.80;;;20.50;70.50;;;;;;5092128;28;20207;-59
2023/03/18 11:29:57;;;;;;;2.92;1.13;;;20.50;70.70;;;;;;5092386;28;20264;-59
2023/03/18 11:32:27;;;;;;;2.17;1.13;;;20.60;71.50;;;;;;5092378;28;20254;-59
2023/03/18 11:34:57;;;;;;;3.58;1.30;;;20.90;71.30;;;;;;5092061;28;20263;-59
2023/03/18 11:37:29;;;;;;;4.82;1.50;;;21.10;71.50;;;;;;5092065;28;20200;-59
2023/03/18 11:40:07;;;;;;;3.28;1.23;;;21.10;70.50;;;;;;5092384;28;20211;-58
2023/03/18 11:42:39;;;;;;;0.98;0.85;;;21.20;70.20;;;;;;5091991;28;20213;-58
2023/03/18 11:45:28;;;;;;;2.10;1.13;;;21.20;68.30;;;;;;5092291;28;20222;-58
2023/03/18 11:47:56;;;;;;;2.92;1.30;;;21.10;69.20;;;;;;5091908;28;20692;-58
2023/03/18 11:50:25;;;;;;;3.90;1.30;;;21.10;67.90;;;;;;5094370;28;20267;-58
2023/03/18 11:52:58;;;;;;;3.35;1.00;;;21.10;68.00;;;;;;5095967;28;20689;-59
2023/03/18 11:55:37;;;;;;;6.88;1.23;;;21.10;67.10;;;;;;5096165;28;20208;-59
2023/03/18 11:58:41;;;;;;;2.75;1.20;;;21.20;67.10;;;;;;5096078;28;20309;-59
2023/03/18 12:01:16;;;;;;;2.40;1.23;;;21.20;67.30;;;;;;5074092;28;20734;-59
2023/03/18 12:04:18;;;;;;;1.58;0.90;;;21.30;64.80;;;;;;5096144;28;20282;-59
2023/03/18 12:06:55;;;;;;;1.20;1.00;;;21.00;65.50;;;;;;5095924;28;20578;-58
2023/03/18 12:09:28;;;;;;;2.30;1.00;;;20.70;65.80;;;;;;5096229;28;20249;-59
2023/03/18 12:12:05;;;;;;;3.38;1.10;;;20.70;66.10;;;;;;5096021;28;20228;-59
2023/03/18 12:14:40;;;;;;;1.88;1.10;;;20.70;65.80;;;;;;5095756;28;20246;-59
2023/03/18 12:17:18;;;;;;;3.13;1.38;;;20.80;66.20;;;;;;5095728;28;20664;-58
2023/03/18 12:20:32;;;;;;;3.20;1.30;;;20.90;65.40;;;;;;5095949;28;20236;-59
2023/03/18 12:23:03;;;;;;;2.58;1.13;;;20.90;65.20;;;;;;5095438;28;20204;-59
2023/03/18 12:25:52;;;;;;;4.43;1.10;;;21.00;64.50;;;;;;5095894;28;20223;-59
2023/03/18 12:28:31;;;;;;;2.33;1.30;;;21.20;62.00;;;;;;5095797;28;20238;-59
2023/03/18 12:31:12;;;;;;;2.70;1.30;;;21.40;61.20;;;;;;5095677;28;20220;-58
2023/03/18 12:33:54;;;;;;;2.17;1.05;;;21.50;61.10;;;;;;5095422;28;20235;-59
2023/03/18 12:36:31;;;;;;;3.22;1.20;;;21.70;61.10;;;;;;5095594;28;20295;-59
2023/03/18 12:39:25;;;;;;;5.45;1.33;;;21.80;60.60;;;;;;5095625;28;20306;-59
2023/03/18 12:42:01;;;;;;;4.07;1.35;;;21.90;60.50;;;;;;5095643;28;20256;-59
2023/03/18 12:44:46;;;;;;;3.13;0.90;;;21.90;60.00;;;;;;5095743;28;20192;-59
2023/03/18 12:47:20;;;;;;;2.28;1.02;;;21.90;59.60;;;;;;5095513;28;20212;-59
2023/03/18 12:49:50;;;;;;;3.17;1.27;;;22.00;59.70;;;;;;5095134;28;20733;-59
2023/03/18 12:52:28;;;;;;;2.35;1.00;;;22.10;59.50;;;;;;5095237;28;20261;-59
2023/03/18 12:55:01;;;;;;;4.72;1.40;;;22.10;59.30;;;;;;5091920;28;20444;-64
2023/03/18 12:57:42;;;;;;;2.45;1.10;;;22.00;59.10;;;;;;5094349;28;20231;-62
2023/03/18 13:00:18;;;;;;;2.45;1.20;;;22.10;59.10;;;;;;5094229;28;20228;-61
2023/03/18 13:02:54;;;;;;;2.25;1.00;;;22.20;59.10;;;;;;5093814;28;20235;-59